Time;durP1;ratioP1;P1;durP2;ratioP2;P2;SDS_P1;SDS_P2;PMS_P1;PMS_P2;Temp;Humidity;BMP_temperature;BMP_pressure;BME280_temperature;BME280_humidity;BME280_pressure;Samples;Min_cycle;Max_cycle;Signal;HPM_P1;HPM_P2
2024/04/19 00:01:16;;;;;;;3.70;1.30;;;9.40;99.90;;;;;;5344929;26;20486;-71
2024/04/19 00:03:44;;;;;;;4.70;1.80;;;9.30;99.90;;;;;;5342519;26;20252;-70
2024/04/19 00:06:13;;;;;;;3.50;2.47;;;9.30;99.90;;;;;;5348077;26;20447;-71
2024/04/19 00:08:38;;;;;;;2.57;1.40;;;9.20;99.90;;;;;;5350823;26;21151;-70
2024/04/19 00:11:07;;;;;;;1.93;1.43;;;9.30;99.90;;;;;;5344349;26;20483;-70
2024/04/19 00:13:33;;;;;;;2.50;1.30;;;9.40;99.90;;;;;;5346452;26;20325;-70
2024/04/19 00:16:01;;;;;;;1.70;1.57;;;9.60;99.90;;;;;;5349515;26;20527;-71
2024/04/19 00:18:28;;;;;;;2.07;1.30;;;9.60;99.90;;;;;;5355898;26;20599;-70
2024/04/19 00:21:00;;;;;;;4.47;1.50;;;9.70;99.90;;;;;;5353268;26;20449;-70
2024/04/19 00:23:26;;;;;;;4.20;1.20;;;9.60;99.90;;;;;;5350076;26;20523;-70
2024/04/19 00:25:57;;;;;;;2.30;1.83;;;9.50;99.90;;;;;;5349186;26;20577;-71
2024/04/19 00:28:22;;;;;;;3.13;2.07;;;9.50;99.90;;;;;;5356704;26;20248;-70
2024/04/19 00:30:51;;;;;;;1.80;1.67;;;9.40;99.90;;;;;;5333978;26;20812;-70
2024/04/19 00:33:19;;;;;;;2.40;1.63;;;9.40;99.90;;;;;;5348379;26;20524;-71
2024/04/19 00:35:45;;;;;;;2.73;1.70;;;9.30;99.90;;;;;;5345357;26;20469;-70
2024/04/19 00:38:16;;;;;;;2.13;1.73;;;9.40;99.90;;;;;;5347211;26;20592;-71
2024/04/19 00:40:42;;;;;;;6.87;2.00;;;9.40;99.90;;;;;;5347889;26;20324;-70
2024/04/19 00:43:13;;;;;;;1.93;1.73;;;9.20;99.90;;;;;;5347302;26;20524;-70
2024/04/19 00:45:40;;;;;;;2.73;1.50;;;9.20;99.90;;;;;;5342147;26;20331;-70
2024/04/19 00:48:13;;;;;;;2.47;1.40;;;9.00;99.90;;;;;;5354313;26;20550;-70
2024/04/19 00:50:39;;;;;;;2.03;1.83;;;8.90;99.90;;;;;;5352480;26;20874;-69
2024/04/19 00:53:08;;;;;;;2.20;1.43;;;8.90;99.90;;;;;;5351867;26;20514;-70
2024/04/19 00:55:38;;;;;;;2.13;1.50;;;8.80;99.90;;;;;;5343490;26;20485;-69
2024/04/19 00:58:07;;;;;;;5.40;1.53;;;8.80;99.90;;;;;;5337891;26;20451;-70
2024/04/19 01:00:33;;;;;;;2.00;1.30;;;8.80;99.90;;;;;;5348927;26;20489;-70
2024/04/19 01:03:01;;;;;;;7.00;1.63;;;8.80;99.90;;;;;;5343583;26;21843;-70
2024/04/19 01:05:27;;;;;;;3.40;1.37;;;8.70;99.90;;;;;;5346950;26;20514;-72
2024/04/19 01:07:56;;;;;;;1.93;1.60;;;8.60;99.90;;;;;;5349112;26;20497;-71
2024/04/19 01:10:22;;;;;;;1.30;0.90;;;8.60;99.90;;;;;;5343283;26;20577;-72
2024/04/19 01:12:53;;;;;;;1.87;1.53;;;8.70;99.90;;;;;;5343219;26;20450;-71
2024/04/19 01:15:21;;;;;;;2.33;1.83;;;8.70;99.90;;;;;;5349715;26;20233;-70
2024/04/19 01:17:49;;;;;;;1.73;1.37;;;8.40;99.90;;;;;;5348033;26;20542;-70
2024/04/19 01:20:15;;;;;;;1.00;0.70;;;8.40;99.90;;;;;;5334589;26;20591;-70
2024/04/19 01:22:45;;;;;;;4.43;1.57;;;8.20;99.90;;;;;;5347088;26;20614;-71
2024/04/19 01:25:17;;;;;;;2.00;1.70;;;8.10;99.90;;;;;;5349597;26;20574;-72
2024/04/19 01:27:48;;;;;;;1.63;1.50;;;8.00;99.90;;;;;;5346011;26;20512;-70
2024/04/19 01:30:13;;;;;;;1.93;1.40;;;8.00;99.90;;;;;;5349574;26;20535;-70
2024/04/19 01:32:42;;;;;;;5.30;1.90;;;7.90;99.90;;;;;;5341265;26;20533;-70
2024/04/19 01:35:08;;;;;;;1.77;1.47;;;7.80;99.90;;;;;;5349669;26;20252;-70
2024/04/19 01:37:36;;;;;;;2.30;1.60;;;7.90;99.90;;;;;;5346622;26;21037;-70
2024/04/19 01:40:02;;;;;;;1.60;1.30;;;7.90;99.90;;;;;;5344888;26;20295;-70
2024/04/19 01:42:31;;;;;;;2.20;1.53;;;7.90;99.90;;;;;;5344911;26;20509;-70
2024/04/19 01:44:59;;;;;;;2.40;1.80;;;7.80;99.90;;;;;;5358834;26;20529;-70
2024/04/19 01:47:27;;;;;;;2.97;1.70;;;7.70;99.90;;;;;;5348717;26;20458;-71
2024/04/19 01:49:53;;;;;;;3.70;1.40;;;7.60;99.90;;;;;;5345043;26;20618;-70
2024/04/19 01:52:21;;;;;;;1.90;1.80;;;7.60;99.90;;;;;;5344569;26;20464;-69
2024/04/19 01:54:47;;;;;;;2.80;1.23;;;7.40;99.90;;;;;;5340252;26;20304;-71
2024/04/19 01:57:16;;;;;;;1.60;1.17;;;7.50;99.90;;;;;;5347856;26;20505;-70
2024/04/19 01:59:41;;;;;;;2.20;1.97;;;7.40;99.90;;;;;;5341091;26;20598;-71
2024/04/19 02:02:12;;;;;;;1.50;1.37;;;7.50;99.90;;;;;;5353028;26;20633;-70
2024/04/19 02:04:38;;;;;;;2.30;1.77;;;7.50;99.90;;;;;;5339378;26;20289;-70
2024/04/19 02:07:07;;;;;;;6.87;1.20;;;7.50;99.90;;;;;;5336763;26;21197;-70
2024/04/19 02:09:34;;;;;;;1.67;1.40;;;7.50;99.90;;;;;;5339301;26;21052;-70
2024/04/19 02:12:02;;;;;;;1.40;1.30;;;7.60;99.90;;;;;;5337042;26;20803;-70
2024/04/19 02:14:30;;;;;;;2.80;1.33;;;7.60;99.90;;;;;;5346924;26;21122;-71
2024/04/19 02:16:58;;;;;;;5.03;1.60;;;7.70;99.90;;;;;;5344445;26;20521;-71
2024/04/19 02:19:29;;;;;;;3.40;2.40;;;7.60;99.90;;;;;;5351315;26;20595;-71
2024/04/19 02:21:57;;;;;;;4.30;2.10;;;7.60;99.90;;;;;;5351441;26;20518;-71
2024/04/19 02:24:23;;;;;;;3.27;1.80;;;7.70;99.90;;;;;;5340235;26;21485;-71
2024/04/19 02:26:52;;;;;;;2.07;1.50;;;7.80;99.90;;;;;;5346200;26;20497;-71
2024/04/19 02:32:05;;;;;;;1.30;1.20;;;7.70;99.90;;;;;;5346019;26;20576;-71
2024/04/19 02:34:33;;;;;;;1.13;1.00;;;7.70;99.90;;;;;;5341773;26;20496;-71
2024/04/19 02:37:02;;;;;;;3.60;2.20;;;7.60;99.90;;;;;;5351101;26;20466;-71
2024/04/19 02:39:27;;;;;;;1.97;1.43;;;7.60;99.90;;;;;;5342903;26;21034;-70
2024/04/19 02:41:56;;;;;;;5.33;3.57;;;7.50;99.90;;;;;;5350374;26;20514;-71
2024/04/19 02:44:25;;;;;;;1.87;1.73;;;7.50;99.90;;;;;;5342285;26;20400;-70
2024/04/19 02:46:53;;;;;;;2.40;1.50;;;7.40;99.90;;;;;;5343781;26;20948;-71
2024/04/19 02:49:22;;;;;;;2.33;1.60;;;7.40;99.90;;;;;;5351204;26;20539;-71
2024/04/19 02:51:53;;;;;;;2.70;2.50;;;7.40;99.90;;;;;;5348505;26;20474;-70
2024/04/19 02:54:21;;;;;;;1.97;1.67;;;7.40;99.90;;;;;;5358329;26;20450;-70
2024/04/19 02:56:49;;;;;;;2.57;1.70;;;7.40;99.90;;;;;;5354114;26;20567;-70
2024/04/19 02:59:18;;;;;;;2.73;1.80;;;7.50;99.90;;;;;;5346249;26;20643;-71
2024/04/19 03:01:47;;;;;;;2.17;1.50;;;7.40;99.90;;;;;;5341009;26;20458;-70
2024/04/19 03:04:15;;;;;;;3.00;2.70;;;7.40;99.90;;;;;;5345945;26;20444;-70
2024/04/19 03:06:43;;;;;;;3.20;2.10;;;7.40;99.90;;;;;;5349832;26;20751;-70
2024/04/19 03:09:16;;;;;;;2.73;2.20;;;7.40;99.90;;;;;;5347179;26;20541;-71
2024/04/19 03:11:44;;;;;;;2.30;2.10;;;7.30;99.90;;;;;;5344156;26;20477;-70
2024/04/19 03:14:15;;;;;;;3.73;2.53;;;7.10;99.90;;;;;;5343846;26;20564;-70
2024/04/19 03:16:43;;;;;;;3.90;2.60;;;7.20;99.90;;;;;;5341669;26;20938;-70
2024/04/19 03:19:12;;;;;;;2.53;2.03;;;7.30;99.90;;;;;;5346228;26;20887;-70
2024/04/19 03:21:43;;;;;;;6.70;2.47;;;7.30;99.90;;;;;;5347196;26;21046;-70
2024/04/19 03:24:11;;;;;;;2.80;2.50;;;7.40;99.90;;;;;;5350187;26;20522;-70
2024/04/19 03:26:42;;;;;;;1.63;1.53;;;7.40;99.90;;;;;;5344996;26;20454;-70
2024/04/19 03:29:12;;;;;;;2.67;2.40;;;7.30;99.90;;;;;;5339530;26;20454;-70
2024/04/19 03:31:40;;;;;;;2.70;2.50;;;7.20;99.90;;;;;;5343494;26;20533;-69
2024/04/19 03:34:08;;;;;;;4.10;1.37;;;7.30;99.90;;;;;;5346770;26;20543;-70
2024/04/19 03:36:40;;;;;;;2.90;2.50;;;7.40;99.90;;;;;;5341893;26;20702;-70
2024/04/19 03:39:09;;;;;;;5.83;2.77;;;7.40;99.90;;;;;;5355330;26;20478;-71
2024/04/19 03:41:37;;;;;;;2.67;2.33;;;7.50;99.90;;;;;;5349313;26;20992;-70
2024/04/19 03:46:53;;;;;;;5.80;3.50;;;7.50;99.90;;;;;;5352483;26;20578;-70
2024/04/19 03:49:22;;;;;;;3.70;2.80;;;7.60;99.90;;;;;;5314883;21;20485;-69
2024/04/19 03:51:50;;;;;;;4.80;2.90;;;7.40;99.90;;;;;;5285952;26;20562;-69
2024/04/19 03:54:19;;;;;;;5.90;3.57;;;7.40;99.90;;;;;;5281391;26;20457;-69
2024/04/19 03:56:47;;;;;;;5.70;4.00;;;7.30;99.90;;;;;;5278106;26;20457;-69
2024/04/19 03:59:18;;;;;;;4.50;3.67;;;7.30;99.90;;;;;;5288496;26;20475;-69
2024/04/19 04:01:47;;;;;;;3.93;3.07;;;7.40;99.90;;;;;;5289924;26;20595;-69
2024/04/19 04:04:15;;;;;;;3.60;2.67;;;7.40;99.90;;;;;;5281124;26;20473;-69
2024/04/19 04:06:44;;;;;;;2.33;2.13;;;7.40;99.90;;;;;;5283918;26;20484;-69
2024/04/19 04:09:12;;;;;;;3.93;2.40;;;7.40;99.90;;;;;;5292103;26;20517;-70
2024/04/19 04:11:41;;;;;;;11.40;3.77;;;7.30;99.90;;;;;;5272229;26;20473;-70
2024/04/19 04:14:09;;;;;;;4.60;2.03;;;7.40;99.90;;;;;;5287493;26;20488;-70
2024/04/19 04:16:40;;;;;;;4.97;3.20;;;7.50;99.90;;;;;;5305596;26;20475;-70
2024/04/19 04:19:09;;;;;;;6.87;3.90;;;7.30;99.90;;;;;;5293587;26;20521;-70
2024/04/19 04:21:37;;;;;;;4.10;3.33;;;7.40;99.90;;;;;;5300137;26;20447;-69
2024/04/19 04:24:06;;;;;;;5.10;3.03;;;7.20;99.90;;;;;;5285104;26;20580;-69
2024/04/19 04:26:35;;;;;;;3.47;2.27;;;7.30;99.90;;;;;;5295504;26;22444;-70
2024/04/19 04:29:03;;;;;;;4.83;2.47;;;7.20;99.90;;;;;;5293085;26;21242;-69
2024/04/19 04:31:32;;;;;;;5.63;4.10;;;7.30;99.90;;;;;;5303824;26;20574;-70
2024/04/19 04:34:03;;;;;;;2.73;2.00;;;7.10;99.90;;;;;;5301912;26;20463;-70
2024/04/19 04:36:32;;;;;;;3.87;3.13;;;7.20;99.90;;;;;;5300764;26;20895;-69
2024/04/19 04:39:01;;;;;;;2.07;1.97;;;7.20;99.90;;;;;;5297547;26;20513;-69
2024/04/19 04:41:29;;;;;;;4.30;3.20;;;7.20;99.90;;;;;;5279516;26;23479;-69
2024/04/19 04:43:58;;;;;;;2.87;2.63;;;7.10;99.90;;;;;;5285385;26;20564;-69
2024/04/19 04:46:26;;;;;;;5.40;2.30;;;7.10;99.90;;;;;;5279725;26;20518;-70
2024/04/19 04:48:54;;;;;;;1.40;1.30;;;7.10;99.90;;;;;;5298305;26;20465;-69
2024/04/19 04:51:25;;;;;;;2.20;1.87;;;7.10;99.90;;;;;;5290034;26;21374;-70
2024/04/19 04:53:54;;;;;;;3.00;2.70;;;7.10;99.90;;;;;;5283024;26;20448;-70
2024/04/19 04:56:22;;;;;;;3.10;2.60;;;7.20;99.90;;;;;;5276041;26;20500;-70
2024/04/19 04:58:51;;;;;;;3.27;3.00;;;7.20;99.90;;;;;;5274030;26;20507;-70
2024/04/19 05:01:19;;;;;;;4.40;2.53;;;7.10;99.90;;;;;;5280492;26;20573;-70
2024/04/19 05:03:49;;;;;;;10.23;2.30;;;7.20;99.90;;;;;;5286781;26;21048;-69
2024/04/19 05:06:17;;;;;;;2.03;1.83;;;7.30;99.90;;;;;;5284703;26;20449;-69
2024/04/19 05:08:48;;;;;;;3.20;2.73;;;7.30;99.90;;;;;;5284834;26;21085;-69
2024/04/19 05:11:16;;;;;;;5.50;3.20;;;7.30;99.90;;;;;;5294680;26;20471;-69
2024/04/19 05:13:45;;;;;;;3.17;2.87;;;7.30;99.90;;;;;;5300086;26;21486;-69
2024/04/19 05:16:13;;;;;;;3.17;2.20;;;7.10;99.90;;;;;;5280272;26;20623;-68
2024/04/19 05:18:42;;;;;;;2.50;2.00;;;7.20;99.90;;;;;;5297519;26;20548;-69
2024/04/19 05:21:10;;;;;;;3.83;2.50;;;7.10;99.90;;;;;;5295961;26;21076;-70
2024/04/19 05:23:39;;;;;;;2.90;2.30;;;7.10;99.90;;;;;;5294116;26;20488;-69
2024/04/19 05:26:10;;;;;;;3.00;1.87;;;7.10;99.90;;;;;;5287641;26;20540;-69
2024/04/19 05:28:38;;;;;;;1.53;1.43;;;7.10;99.90;;;;;;5290680;26;20481;-69
2024/04/19 05:31:07;;;;;;;2.97;2.07;;;7.10;99.90;;;;;;5298712;26;20838;-69
2024/04/19 05:33:35;;;;;;;2.13;1.63;;;7.20;99.90;;;;;;5298315;26;20515;-70
2024/04/19 05:36:04;;;;;;;2.30;2.10;;;7.20;99.90;;;;;;5302631;26;20766;-70
2024/04/19 05:38:32;;;;;;;4.23;3.33;;;7.20;99.90;;;;;;5297264;26;20506;-69
2024/04/19 05:41:00;;;;;;;4.67;2.20;;;7.30;99.90;;;;;;5298819;26;20469;-71
2024/04/19 05:43:31;;;;;;;2.70;1.90;;;7.30;99.90;;;;;;5292359;26;20485;-70
2024/04/19 05:46:00;;;;;;;4.40;1.90;;;7.20;99.90;;;;;;5288040;26;20603;-69
2024/04/19 05:48:28;;;;;;;3.47;1.77;;;7.20;99.90;;;;;;5285188;26;20604;-68
2024/04/19 05:50:57;;;;;;;4.30;3.73;;;7.20;99.90;;;;;;5289159;26;20489;-69
2024/04/19 05:53:26;;;;;;;3.63;2.77;;;7.30;99.90;;;;;;5296454;26;20610;-69
2024/04/19 05:55:54;;;;;;;2.60;2.40;;;7.30;99.90;;;;;;5292836;26;20616;-69
2024/04/19 05:58:24;;;;;;;4.23;3.63;;;7.40;99.90;;;;;;5292410;26;20481;-69
2024/04/19 06:00:55;;;;;;;4.80;2.57;;;7.40;99.90;;;;;;5291506;26;20816;-67
2024/04/19 06:03:23;;;;;;;2.03;1.80;;;7.30;99.90;;;;;;5287468;26;20529;-67
2024/04/19 06:05:51;;;;;;;6.33;2.53;;;7.30;99.90;;;;;;5286973;26;21043;-67
2024/04/19 06:08:20;;;;;;;4.00;2.53;;;7.30;99.90;;;;;;5279832;26;20610;-67
2024/04/19 06:10:48;;;;;;;2.93;1.77;;;7.30;99.90;;;;;;5288611;26;20525;-67
2024/04/19 06:13:17;;;;;;;4.90;2.90;;;7.40;99.90;;;;;;5290020;26;20877;-67
2024/04/19 06:15:46;;;;;;;2.93;2.50;;;7.40;99.90;;;;;;5293188;26;21153;-67
2024/04/19 06:18:17;;;;;;;4.80;2.77;;;7.30;99.90;;;;;;5287072;26;20609;-67
2024/04/19 06:20:45;;;;;;;3.30;2.23;;;7.50;99.90;;;;;;5288040;26;20474;-68
2024/04/19 06:23:14;;;;;;;2.77;2.37;;;7.50;99.90;;;;;;5297779;26;20473;-67
2024/04/19 06:25:43;;;;;;;4.03;3.00;;;7.50;99.90;;;;;;5289647;26;20450;-67
2024/04/19 06:28:11;;;;;;;3.10;2.37;;;7.40;99.90;;;;;;5279884;26;20782;-67
2024/04/19 06:30:37;;;;;;;4.50;2.60;;;7.40;99.90;;;;;;5284879;26;20450;-67
2024/04/19 06:33:06;;;;;;;4.33;3.07;;;7.50;99.90;;;;;;5281484;26;20850;-67
2024/04/19 06:35:37;;;;;;;2.27;1.37;;;7.60;99.90;;;;;;5276463;26;20409;-68
2024/04/19 06:38:06;;;;;;;1.57;1.47;;;7.60;99.90;;;;;;5293748;26;20568;-67
2024/04/19 06:40:34;;;;;;;6.20;1.67;;;7.60;99.90;;;;;;5292172;26;20527;-67
2024/04/19 06:43:03;;;;;;;4.13;3.73;;;7.60;99.90;;;;;;5285979;26;20478;-67
2024/04/19 06:45:36;;;;;;;2.27;1.90;;;7.60;99.90;;;;;;5279755;26;20553;-68
2024/04/19 06:48:06;;;;;;;3.63;3.33;;;7.70;99.90;;;;;;5288211;26;20557;-68
2024/04/19 06:50:37;;;;;;;2.90;1.90;;;7.70;99.90;;;;;;5279592;26;20520;-68
2024/04/19 06:53:06;;;;;;;5.07;3.00;;;7.80;99.90;;;;;;5294730;26;20520;-68
2024/04/19 06:55:35;;;;;;;2.03;1.83;;;7.80;99.90;;;;;;5292601;26;20594;-68
2024/04/19 06:58:03;;;;;;;2.63;2.00;;;7.80;99.90;;;;;;5284309;26;20643;-68
2024/04/19 07:00:31;;;;;;;3.40;2.93;;;7.80;99.90;;;;;;5297871;26;20597;-68
2024/04/19 07:03:00;;;;;;;4.10;3.07;;;7.80;99.90;;;;;;5291243;26;20496;-68
2024/04/19 07:05:28;;;;;;;3.80;3.17;;;7.80;99.90;;;;;;5287050;26;20457;-68
2024/04/19 07:07:59;;;;;;;4.23;3.63;;;7.80;99.90;;;;;;5288572;26;20454;-68
2024/04/19 07:10:28;;;;;;;2.20;2.00;;;7.90;99.90;;;;;;5285950;26;20484;-68
2024/04/19 07:12:56;;;;;;;4.13;3.20;;;8.00;99.90;;;;;;5287998;26;20489;-68
2024/04/19 07:15:25;;;;;;;2.87;2.40;;;7.90;99.90;;;;;;5294260;26;20998;-68
2024/04/19 07:17:53;;;;;;;5.40;3.83;;;7.90;99.90;;;;;;5286683;26;20597;-68
2024/04/19 07:20:21;;;;;;;4.37;3.13;;;7.90;99.90;;;;;;5287449;26;20460;-68
2024/04/19 07:22:50;;;;;;;4.30;3.63;;;7.90;99.90;;;;;;5280257;26;21107;-68
2024/04/19 07:25:21;;;;;;;6.57;5.70;;;8.00;99.90;;;;;;5291580;26;20565;-68
2024/04/19 07:27:49;;;;;;;3.40;2.40;;;8.10;99.90;;;;;;5284601;26;21120;-68
2024/04/19 07:30:18;;;;;;;5.47;3.90;;;8.10;99.90;;;;;;5300619;26;20536;-68
2024/04/19 07:32:46;;;;;;;5.07;4.57;;;8.20;99.90;;;;;;5292946;26;20734;-68
2024/04/19 07:35:15;;;;;;;2.13;1.83;;;8.30;99.90;;;;;;5291403;26;20779;-68
2024/04/19 07:37:43;;;;;;;5.37;3.57;;;8.30;99.90;;;;;;5289255;26;20454;-66
2024/04/19 07:40:12;;;;;;;7.07;4.23;;;8.30;99.90;;;;;;5296230;26;20458;-67
2024/04/19 07:42:45;;;;;;;7.00;4.70;;;8.30;99.90;;;;;;5281390;26;20538;-68
2024/04/19 07:45:18;;;;;;;6.20;3.73;;;8.40;99.90;;;;;;5286445;26;20519;-68
2024/04/19 07:47:47;;;;;;;9.77;3.73;;;8.40;99.90;;;;;;5277072;26;20569;-68
2024/04/19 07:50:15;;;;;;;5.77;4.30;;;8.50;99.90;;;;;;5277866;26;20602;-68
2024/04/19 07:52:43;;;;;;;3.97;3.07;;;8.50;99.90;;;;;;5285989;26;20572;-67
2024/04/19 07:55:12;;;;;;;4.90;3.57;;;8.40;99.90;;;;;;5285293;26;20558;-68
2024/04/19 07:57:43;;;;;;;5.73;3.90;;;8.50;99.90;;;;;;5286585;26;20543;-68
2024/04/19 08:00:16;;;;;;;6.30;4.37;;;8.50;99.90;;;;;;5290146;26;20584;-67
2024/04/19 08:02:48;;;;;;;5.77;4.30;;;8.50;99.90;;;;;;5291777;26;20912;-67
2024/04/19 08:05:17;;;;;;;7.40;4.83;;;8.60;99.90;;;;;;5285641;26;20473;-67
2024/04/19 08:07:46;;;;;;;4.57;3.87;;;8.70;99.90;;;;;;5274395;26;20478;-67
2024/04/19 08:10:16;;;;;;;8.87;3.60;;;8.80;99.90;;;;;;5279753;26;21125;-69
2024/04/19 08:12:47;;;;;;;6.57;4.40;;;8.90;99.90;;;;;;5287197;26;20573;-67
2024/04/19 08:15:13;;;;;;;4.07;3.07;;;8.90;99.90;;;;;;5278925;26;20489;-67
2024/04/19 08:17:41;;;;;;;3.93;3.40;;;9.00;99.90;;;;;;5288931;26;20454;-67
2024/04/19 08:20:10;;;;;;;4.13;3.70;;;9.00;99.90;;;;;;5291533;26;20610;-66
2024/04/19 08:22:39;;;;;;;6.37;4.43;;;9.10;99.90;;;;;;5291227;26;20555;-67
2024/04/19 08:25:07;;;;;;;4.93;4.57;;;9.00;99.90;;;;;;5284601;26;20472;-67
2024/04/19 08:27:37;;;;;;;5.57;4.93;;;9.10;99.90;;;;;;5284499;26;20695;-67
2024/04/19 08:30:10;;;;;;;4.87;3.93;;;9.20;99.90;;;;;;5292380;26;20601;-67
2024/04/19 08:32:38;;;;;;;4.77;4.27;;;9.30;99.90;;;;;;5285794;26;20449;-67
2024/04/19 08:35:07;;;;;;;7.30;4.33;;;9.30;99.90;;;;;;5290855;26;20554;-67
2024/04/19 08:37:35;;;;;;;6.20;3.97;;;9.40;99.90;;;;;;5285770;26;21311;-68
2024/04/19 08:40:04;;;;;;;4.77;3.47;;;9.50;99.90;;;;;;5281352;26;21398;-67
2024/04/19 08:42:32;;;;;;;5.60;3.63;;;9.60;99.90;;;;;;5287255;26;20515;-69
2024/04/19 08:45:02;;;;;;;9.30;5.47;;;9.70;99.90;;;;;;5285591;26;20539;-68
2024/04/19 08:47:35;;;;;;;5.83;4.87;;;9.90;99.90;;;;;;5284549;26;20536;-67
2024/04/19 08:50:05;;;;;;;6.47;4.43;;;9.90;99.90;;;;;;5292974;26;20692;-67
2024/04/19 08:52:34;;;;;;;5.20;3.40;;;10.00;99.90;;;;;;5295000;26;20477;-67
2024/04/19 08:55:05;;;;;;;5.30;4.17;;;10.20;99.90;;;;;;5287302;26;20560;-67
2024/04/19 08:57:34;;;;;;;12.80;6.40;;;10.40;99.90;;;;;;5278722;26;20457;-67
2024/04/19 09:00:04;;;;;;;7.50;4.77;;;10.60;99.90;;;;;;5293197;26;20473;-67
2024/04/19 09:02:35;;;;;;;8.27;4.00;;;10.80;99.90;;;;;;5286495;26;21105;-67
2024/04/19 09:05:06;;;;;;;7.47;4.33;;;11.00;99.90;;;;;;5288398;26;21020;-67
2024/04/19 09:07:34;;;;;;;6.83;4.30;;;11.10;99.90;;;;;;5285893;26;20555;-67
2024/04/19 09:10:03;;;;;;;4.50;3.00;;;11.30;99.90;;;;;;5283076;26;20561;-67
2024/04/19 09:12:31;;;;;;;6.40;4.93;;;11.20;99.90;;;;;;5289533;26;21303;-68
2024/04/19 09:14:59;;;;;;;9.13;4.40;;;11.20;99.90;;;;;;5289799;26;20605;-67
2024/04/19 09:17:29;;;;;;;6.00;4.17;;;11.20;99.90;;;;;;5279949;26;20531;-67
2024/04/19 09:20:01;;;;;;;4.40;3.87;;;11.30;99.90;;;;;;5285632;26;20456;-67
2024/04/19 09:22:29;;;;;;;6.10;3.27;;;11.20;99.90;;;;;;5283591;26;20624;-67
2024/04/19 09:24:57;;;;;;;8.13;3.87;;;11.30;99.90;;;;;;5288729;26;20583;-67
2024/04/19 09:27:27;;;;;;;5.03;4.53;;;11.40;99.90;;;;;;5293215;26;20472;-67
2024/04/19 09:29:55;;;;;;;4.83;3.63;;;11.40;99.90;;;;;;5290127;26;20795;-67
2024/04/19 09:32:24;;;;;;;7.00;4.37;;;11.50;99.90;;;;;;5294165;26;20472;-67
2024/04/19 09:34:53;;;;;;;3.93;3.30;;;11.50;99.90;;;;;;5275797;26;20957;-67
2024/04/19 09:37:28;;;;;;;5.13;3.30;;;11.50;99.90;;;;;;5295208;26;20449;-67
2024/04/19 09:39:56;;;;;;;6.00;3.43;;;11.50;99.90;;;;;;5289212;26;20541;-68
2024/04/19 09:42:26;;;;;;;4.03;2.90;;;11.50;99.90;;;;;;5284117;26;20548;-67
2024/04/19 09:44:55;;;;;;;5.87;3.20;;;11.40;99.90;;;;;;5290810;26;21093;-68
2024/04/19 09:47:25;;;;;;;4.80;2.90;;;11.30;99.90;;;;;;5289896;26;20588;-68
2024/04/19 09:49:58;;;;;;;3.60;3.17;;;11.10;99.90;;;;;;5291517;26;20512;-67
2024/04/19 09:52:32;;;;;;;2.53;2.20;;;10.90;99.90;;;;;;5297128;26;20500;-66
2024/04/19 09:55:09;;;;;;;7.23;2.30;;;10.60;99.90;;;;;;5287366;26;20625;-67
2024/04/19 09:57:38;;;;;;;1.60;1.50;;;10.20;99.90;;;;;;5289163;26;20464;-67
2024/04/19 10:00:08;;;;;;;3.50;1.73;;;9.90;99.90;;;;;;5282735;26;20482;-67
2024/04/19 10:02:38;;;;;;;2.10;1.10;;;10.00;99.90;;;;;;5291930;26;20477;-67
2024/04/19 10:05:09;;;;;;;1.87;1.10;;;10.20;99.90;;;;;;5298911;26;21072;-67
2024/04/19 10:07:43;;;;;;;1.13;1.03;;;10.30;99.90;;;;;;5291808;26;20465;-68
2024/04/19 10:10:12;;;;;;;3.00;1.47;;;10.40;99.90;;;;;;5287661;26;20458;-67
2024/04/19 10:12:41;;;;;;;2.07;1.40;;;10.60;99.90;;;;;;5287580;26;20994;-67
2024/04/19 10:15:11;;;;;;;3.37;1.97;;;10.70;99.90;;;;;;5289564;26;20448;-67
2024/04/19 10:17:40;;;;;;;1.90;1.00;;;11.00;99.90;;;;;;5288531;26;20552;-67
2024/04/19 10:20:11;;;;;;;7.37;3.57;;;11.50;99.90;;;;;;5291151;26;20503;-68
2024/04/19 10:22:43;;;;;;;3.27;2.20;;;11.70;99.90;;;;;;5288443;26;20620;-67
2024/04/19 10:25:12;;;;;;;1.57;1.33;;;11.90;99.90;;;;;;5300896;26;20472;-67
2024/04/19 10:27:41;;;;;;;1.70;1.30;;;11.80;99.90;;;;;;5292310;26;20562;-68
2024/04/19 10:30:11;;;;;;;3.23;2.47;;;11.80;99.90;;;;;;5288473;26;20486;-68
2024/04/19 10:32:39;;;;;;;1.60;1.13;;;11.70;99.90;;;;;;5284111;26;21202;-68
2024/04/19 10:35:13;;;;;;;2.30;1.33;;;11.70;99.90;;;;;;5296860;26;20533;-68
2024/04/19 10:37:44;;;;;;;1.20;1.03;;;11.60;99.90;;;;;;5284153;26;20522;-68
2024/04/19 10:40:14;;;;;;;1.30;0.80;;;11.60;99.90;;;;;;5290003;26;20937;-68
2024/04/19 10:42:42;;;;;;;1.10;0.80;;;11.30;99.90;;;;;;5284297;26;20621;-68
2024/04/19 10:45:14;;;;;;;1.53;1.10;;;11.10;99.90;;;;;;5291549;26;21319;-68
2024/04/19 10:47:43;;;;;;;1.40;0.90;;;11.00;99.90;;;;;;5292835;26;20484;-68
2024/04/19 10:50:12;;;;;;;1.53;1.20;;;10.80;99.90;;;;;;5277710;26;21151;-68
2024/04/19 10:52:43;;;;;;;2.70;1.00;;;10.60;99.90;;;;;;5287936;26;20568;-68
2024/04/19 10:55:11;;;;;;;1.03;0.70;;;10.80;99.90;;;;;;5290204;26;20525;-67
2024/04/19 10:57:40;;;;;;;1.30;0.80;;;10.70;99.90;;;;;;5285292;26;20476;-68
2024/04/19 11:00:10;;;;;;;1.00;0.80;;;10.60;99.90;;;;;;5284185;26;20515;-68
2024/04/19 11:02:39;;;;;;;1.30;1.20;;;10.70;99.90;;;;;;5282909;26;21174;-68
2024/04/19 11:05:09;;;;;;;0.90;0.60;;;10.70;99.90;;;;;;5293927;26;20509;-67
2024/04/19 11:07:38;;;;;;;1.00;0.80;;;10.50;99.90;;;;;;5287998;26;20590;-68
2024/04/19 11:10:10;;;;;;;1.00;0.70;;;10.50;99.90;;;;;;5284324;26;20466;-68
2024/04/19 11:12:38;;;;;;;1.10;0.70;;;10.50;99.90;;;;;;5291158;26;21291;-68
2024/04/19 11:15:08;;;;;;;1.10;0.80;;;10.40;99.90;;;;;;5293074;26;20616;-68
2024/04/19 11:17:36;;;;;;;1.30;0.80;;;10.50;99.90;;;;;;5287325;26;21052;-68
2024/04/19 11:20:05;;;;;;;1.47;1.00;;;10.60;99.90;;;;;;5284263;26;20566;-68
2024/04/19 11:22:36;;;;;;;1.43;1.23;;;10.70;99.90;;;;;;5281490;26;20461;-68
2024/04/19 11:25:05;;;;;;;1.47;1.13;;;10.90;99.90;;;;;;5284280;26;20536;-68
2024/04/19 11:27:36;;;;;;;1.10;0.90;;;11.10;99.90;;;;;;5295536;26;20479;-68
2024/04/19 11:30:05;;;;;;;1.50;1.20;;;11.30;99.90;;;;;;5273121;26;20516;-68
2024/04/19 11:32:34;;;;;;;1.70;0.90;;;11.60;99.90;;;;;;5294878;26;20558;-68
2024/04/19 11:35:03;;;;;;;1.10;0.90;;;11.70;99.90;;;;;;5287177;26;20638;-68
2024/04/19 11:37:35;;;;;;;1.03;0.87;;;11.90;99.90;;;;;;5298242;26;20537;-68
2024/04/19 11:40:03;;;;;;;1.60;1.10;;;12.20;99.90;;;;;;5283469;26;20492;-66
2024/04/19 11:42:36;;;;;;;1.27;0.90;;;12.80;99.90;;;;;;5290526;26;20625;-67
2024/04/19 11:45:06;;;;;;;1.20;0.80;;;13.50;99.90;;;;;;5308253;26;20824;-67
2024/04/19 11:47:34;;;;;;;1.23;1.00;;;14.00;99.90;;;;;;5293336;26;20495;-67
2024/04/19 11:50:04;;;;;;;1.07;0.70;;;14.70;99.90;;;;;;5286311;26;20534;-67
2024/04/19 11:52:32;;;;;;;1.13;0.80;;;14.80;99.90;;;;;;5289798;26;20524;-66
2024/04/19 11:55:01;;;;;;;2.03;1.00;;;14.70;99.90;;;;;;5282635;26;20531;-68
2024/04/19 11:57:27;;;;;;;1.03;0.70;;;15.00;99.90;;;;;;5285578;26;20552;-67
2024/04/19 11:59:58;;;;;;;1.20;0.90;;;15.00;99.90;;;;;;5288507;26;20468;-67
2024/04/19 12:02:26;;;;;;;1.50;1.10;;;15.10;99.90;;;;;;5288486;26;20371;-67
2024/04/19 12:04:55;;;;;;;1.10;0.80;;;14.70;99.90;;;;;;5287509;26;20713;-67
2024/04/19 12:07:23;;;;;;;1.50;0.90;;;14.60;99.90;;;;;;5288662;26;20669;-67
2024/04/19 12:09:52;;;;;;;1.03;0.70;;;14.10;99.90;;;;;;5296550;26;20568;-68
2024/04/19 12:12:21;;;;;;;1.43;0.97;;;13.50;99.90;;;;;;5285389;26;20528;-67
2024/04/19 12:14:50;;;;;;;1.53;0.87;;;13.30;99.90;;;;;;5286182;26;20584;-68
2024/04/19 12:17:22;;;;;;;1.00;0.80;;;13.00;99.90;;;;;;5294415;26;20487;-68
2024/04/19 12:19:51;;;;;;;1.40;0.87;;;12.60;99.90;;;;;;5282072;26;20454;-67
2024/04/19 12:22:19;;;;;;;1.20;0.90;;;12.10;99.90;;;;;;5285820;26;21113;-67
2024/04/19 12:24:48;;;;;;;0.93;0.70;;;11.60;99.90;;;;;;5295646;26;20760;-67
2024/04/19 12:27:16;;;;;;;3.03;2.17;;;11.40;99.90;;;;;;5285488;26;20531;-67
2024/04/19 12:29:45;;;;;;;1.00;0.83;;;11.40;99.90;;;;;;5290676;26;20623;-67
2024/04/19 12:32:14;;;;;;;1.00;0.70;;;11.50;99.90;;;;;;5285140;26;20482;-68
2024/04/19 12:34:45;;;;;;;1.00;0.70;;;11.20;99.90;;;;;;5285504;26;20565;-68
2024/04/19 12:37:15;;;;;;;1.07;0.70;;;11.10;99.90;;;;;;5283993;26;20540;-68
2024/04/19 12:39:43;;;;;;;0.90;0.67;;;10.80;99.90;;;;;;5296775;26;20588;-68
2024/04/19 12:42:12;;;;;;;2.03;0.70;;;10.80;99.90;;;;;;5288074;26;20828;-69
2024/04/19 12:44:47;;;;;;;0.90;0.60;;;10.20;99.90;;;;;;5293117;26;20511;-68
2024/04/19 12:47:16;;;;;;;1.83;0.80;;;9.90;99.90;;;;;;5288794;26;20571;-68
2024/04/19 12:49:47;;;;;;;0.93;0.67;;;9.50;99.90;;;;;;5286856;26;20552;-68
2024/04/19 12:52:15;;;;;;;1.10;0.70;;;9.30;99.90;;;;;;5302489;26;21151;-68
2024/04/19 12:54:44;;;;;;;1.10;0.60;;;9.30;99.90;;;;;;5291028;26;20528;-68
2024/04/19 12:57:12;;;;;;;1.20;0.80;;;9.30;99.90;;;;;;5290801;26;20598;-68
2024/04/19 12:59:41;;;;;;;3.33;0.90;;;9.40;99.90;;;;;;5291902;26;20507;-70
2024/04/19 13:02:10;;;;;;;1.00;0.73;;;9.70;99.90;;;;;;5296980;26;21092;-68
2024/04/19 13:04:38;;;;;;;1.00;0.77;;;9.80;99.90;;;;;;5299888;26;20570;-68
2024/04/19 13:07:09;;;;;;;1.00;0.70;;;10.10;99.90;;;;;;5306132;26;20485;-68